Janauba, Brazil
Current Conditions -  °F | °C
As of 6:00 AM on Tuesday 21 Oct 2014 (Local Time) from SBMK Reporting Station
Broken Clouds Broken Clouds  
Wind Chill: 72°   Ceiling: 4500
Heat Index: 72°   Visibility: 6mi
Dew Point: 63°   Wind: 14mph
Humidity: 73%   Direction: 180°S
Pressure: 30"   Gusts: NA
Location:  15.8°S, 43.31°W
Report Text: SBMK 210800Z 18012KT 9000 BKN045 BKN050 22/17 Q1016 RETS
Loading
Personal Weather Stations






























Interactive Weather Map
Tropical Storm Tracking
New forecast layout! Learn more

10-Day Weather Forecast

Advertisements
Track Severe Weather on mobile